createdAt,value
2022-11-27T00:02:39.185Z,19.50
2022-11-27T00:05:14.967Z,21.60
2022-11-27T00:07:49.245Z,22.00
2022-11-27T00:10:23.512Z,21.10
2022-11-27T00:12:58.169Z,21.20
2022-11-27T00:15:32.508Z,22.30
2022-11-27T00:18:06.625Z,21.10
2022-11-27T00:20:40.680Z,21.60
2022-11-27T00:23:14.787Z,20.40
2022-11-27T00:25:55.551Z,21.50
2022-11-27T00:28:29.621Z,22.20
2022-11-27T00:31:06.493Z,22.10
2022-11-27T00:33:40.484Z,22.10
2022-11-27T00:36:17.207Z,21.00
2022-11-27T00:38:51.261Z,20.70
2022-11-27T00:41:27.635Z,20.80
2022-11-27T00:44:02.221Z,21.00
2022-11-27T00:46:40.161Z,19.50
2022-11-27T00:49:16.594Z,20.40
2022-11-27T00:51:50.560Z,19.50
2022-11-27T00:54:24.365Z,19.80
2022-11-27T00:56:59.048Z,19.30
2022-11-27T00:59:33.395Z,20.10
2022-11-27T01:02:07.743Z,20.70
2022-11-27T01:04:42.594Z,20.50
2022-11-27T01:07:16.556Z,19.00
2022-11-27T01:09:50.733Z,21.00
2022-11-27T01:12:24.433Z,18.90
2022-11-27T01:14:58.465Z,21.20
2022-11-27T01:17:32.365Z,20.30
2022-11-27T01:20:07.818Z,19.70
2022-11-27T01:22:41.908Z,21.60
2022-11-27T01:25:16.406Z,22.10
2022-11-27T01:27:50.183Z,20.90
2022-11-27T01:30:24.249Z,20.00
2022-11-27T01:32:58.445Z,18.00
2022-11-27T01:35:33.828Z,23.00
2022-11-27T01:38:07.819Z,20.10
2022-11-27T01:40:42.186Z,21.10
2022-11-27T01:43:19.119Z,20.30
2022-11-27T01:45:52.866Z,16.80
2022-11-27T01:48:27.353Z,16.70
2022-11-27T01:51:01.278Z,17.20
2022-11-27T01:53:38.276Z,16.50
2022-11-27T01:56:13.075Z,18.00
2022-11-27T01:58:47.400Z,16.10
2022-11-27T02:01:22.240Z,15.00
2022-11-27T02:03:59.396Z,17.70
2022-11-27T02:06:33.301Z,18.70
2022-11-27T02:09:07.312Z,17.20
2022-11-27T02:11:54.946Z,16.20
2022-11-27T02:14:41.089Z,16.90
2022-11-27T02:17:25.615Z,16.10
2022-11-27T02:20:21.108Z,16.60
2022-11-27T02:23:17.457Z,17.40
2022-11-27T02:26:20.763Z,16.80
2022-11-27T02:29:06.788Z,15.80
2022-11-27T02:31:47.982Z,17.20
2022-11-27T02:34:30.022Z,17.30
2022-11-27T02:37:10.905Z,17.40
2022-11-27T02:39:52.259Z,18.50
2022-11-27T02:42:28.080Z,17.00
2022-11-27T02:45:09.918Z,17.20
2022-11-27T02:47:47.867Z,17.60
2022-11-27T02:50:26.098Z,17.00
2022-11-27T02:53:09.056Z,14.40
2022-11-27T02:55:46.507Z,20.20
2022-11-27T02:58:25.846Z,19.30
2022-11-27T03:01:00.681Z,18.40
2022-11-27T03:03:41.353Z,18.30
2022-11-27T03:06:29.742Z,19.40
2022-11-27T03:09:10.461Z,16.80
2022-11-27T03:11:44.626Z,18.70
2022-11-27T03:14:20.413Z,20.10
2022-11-27T03:17:07.268Z,19.40
2022-11-27T03:19:51.128Z,19.90
2022-11-27T03:22:26.926Z,18.30
2022-11-27T03:25:01.813Z,18.30
2022-11-27T03:27:42.190Z,21.70
2022-11-27T03:30:18.272Z,20.10
2022-11-27T03:32:52.485Z,20.70
2022-11-27T03:35:29.103Z,21.00
2022-11-27T03:38:03.136Z,20.80
2022-11-27T03:41:00.380Z,21.30
2022-11-27T03:43:43.317Z,19.70
2022-11-27T03:46:27.563Z,19.30
2022-11-27T03:49:09.972Z,19.50
2022-11-27T03:51:52.586Z,19.20
2022-11-27T03:54:43.226Z,18.30
2022-11-27T03:57:28.114Z,19.80
2022-11-27T04:00:06.304Z,19.50
2022-11-27T04:02:49.627Z,18.90
2022-11-27T04:05:24.540Z,20.00
2022-11-27T04:07:58.746Z,20.50
2022-11-27T04:10:32.687Z,19.50
2022-11-27T04:13:06.399Z,21.50
2022-11-27T04:15:40.285Z,22.20
2022-11-27T04:18:14.486Z,23.20
2022-11-27T04:20:48.537Z,21.40
2022-11-27T04:23:22.500Z,21.20
2022-11-27T04:25:56.196Z,22.90
2022-11-27T04:28:30.671Z,21.30
2022-11-27T04:31:05.214Z,21.00
2022-11-27T04:33:39.114Z,23.30
2022-11-27T04:36:13.160Z,20.70
2022-11-27T04:38:47.010Z,20.50
2022-11-27T04:41:20.655Z,20.80
2022-11-27T04:43:54.199Z,20.10
2022-11-27T04:46:28.624Z,22.70
2022-11-27T04:49:02.356Z,22.30
2022-11-27T04:51:36.134Z,23.10
2022-11-27T04:54:10.191Z,18.90
2022-11-27T04:56:43.893Z,18.60
2022-11-27T04:59:17.613Z,21.80
2022-11-27T05:01:51.511Z,21.00
2022-11-27T05:04:26.165Z,21.80
2022-11-27T05:06:59.901Z,18.50
2022-11-27T05:09:33.809Z,17.20
2022-11-27T05:12:08.573Z,21.50
2022-11-27T05:14:42.387Z,20.80
2022-11-27T05:17:16.490Z,18.90
2022-11-27T05:19:50.546Z,21.10
2022-11-27T05:22:24.321Z,18.60
2022-11-27T05:24:58.361Z,20.40
2022-11-27T05:27:31.977Z,20.90
2022-11-27T05:30:07.162Z,20.90
2022-11-27T05:32:41.563Z,18.00
2022-11-27T05:35:15.723Z,19.20
2022-11-27T05:37:49.387Z,19.40
2022-11-27T05:40:23.458Z,20.60
2022-11-27T05:42:57.372Z,18.80
2022-11-27T05:45:31.590Z,20.00
2022-11-27T05:48:06.106Z,19.10
2022-11-27T05:50:39.896Z,20.60
2022-11-27T05:53:13.597Z,18.90
2022-11-27T05:55:47.233Z,18.20
2022-11-27T05:58:21.248Z,17.60
2022-11-27T06:00:55.446Z,19.40
2022-11-27T06:03:30.037Z,19.10
2022-11-27T06:06:08.927Z,20.20
2022-11-27T06:08:43.884Z,18.90
2022-11-27T06:11:20.819Z,20.00
2022-11-27T06:13:54.775Z,19.60
2022-11-27T06:16:28.682Z,18.40
2022-11-27T06:19:02.456Z,18.00
2022-11-27T06:21:36.113Z,16.60
2022-11-27T06:24:11.866Z,18.80
2022-11-27T06:26:46.027Z,16.10
2022-11-27T06:29:20.023Z,17.40
2022-11-27T06:31:53.952Z,18.50
2022-11-27T06:34:28.316Z,14.30
2022-11-27T06:37:01.948Z,14.80
2022-11-27T06:39:35.791Z,18.40
2022-11-27T06:42:09.966Z,19.30
2022-11-27T06:44:43.835Z,18.80
2022-11-27T06:47:17.937Z,19.50
2022-11-27T06:49:52.372Z,18.00
2022-11-27T06:52:26.023Z,17.20
2022-11-27T06:54:59.797Z,16.50
2022-11-27T06:57:33.825Z,16.50
2022-11-27T07:00:10.288Z,16.50
2022-11-27T07:02:44.220Z,16.90
2022-11-27T07:05:18.540Z,17.80
2022-11-27T07:07:52.352Z,17.30
2022-11-27T07:10:26.863Z,16.70
2022-11-27T07:13:00.867Z,15.60
2022-11-27T07:15:36.065Z,17.10
2022-11-27T07:18:10.114Z,15.40
2022-11-27T07:20:43.801Z,16.00
2022-11-27T07:23:17.888Z,19.20
2022-11-27T07:25:51.796Z,19.30
2022-11-27T07:28:26.405Z,19.00
2022-11-27T07:31:01.670Z,18.90
2022-11-27T07:33:35.389Z,16.70
2022-11-27T07:36:14.993Z,14.50
2022-11-27T07:38:50.367Z,15.40
2022-11-27T07:41:26.061Z,15.40
2022-11-27T07:44:03.025Z,18.70
2022-11-27T07:46:37.048Z,18.10
2022-11-27T07:49:10.836Z,16.70
2022-11-27T07:51:44.560Z,17.50
2022-11-27T07:54:18.458Z,17.60
2022-11-27T07:56:52.369Z,17.00
2022-11-27T07:59:26.792Z,14.30
2022-11-27T08:02:00.494Z,17.00
2022-11-27T08:04:34.591Z,14.70
2022-11-27T08:07:08.559Z,17.70
2022-11-27T08:09:43.009Z,17.00
2022-11-27T08:12:17.250Z,16.40
2022-11-27T08:14:51.271Z,18.10
2022-11-27T08:17:25.068Z,14.50
2022-11-27T08:19:58.874Z,16.70
2022-11-27T08:22:32.502Z,15.00
2022-11-27T08:25:07.165Z,12.40
2022-11-27T08:27:40.903Z,11.30
2022-11-27T08:30:16.789Z,10.40
2022-11-27T08:32:50.647Z,11.40
2022-11-27T08:35:24.717Z,12.00
2022-11-27T08:37:59.199Z,14.00
2022-11-27T08:40:34.477Z,13.30
2022-11-27T08:43:08.435Z,12.10
2022-11-27T08:45:43.673Z,14.90
2022-11-27T08:48:18.140Z,16.30
2022-11-27T08:50:53.003Z,13.30
2022-11-27T08:53:26.948Z,13.00
2022-11-27T08:56:08.355Z,12.60
2022-11-27T08:58:42.670Z,12.90
2022-11-27T09:01:20.562Z,12.40
2022-11-27T09:03:55.056Z,12.00
2022-11-27T09:06:33.382Z,12.60
2022-11-27T09:09:09.034Z,14.80
2022-11-27T09:11:43.361Z,16.00
2022-11-27T09:14:17.734Z,14.40
2022-11-27T09:16:53.938Z,13.70
2022-11-27T09:19:28.380Z,12.00
2022-11-27T09:22:02.536Z,11.80
2022-11-27T09:24:37.145Z,14.90
2022-11-27T09:27:11.003Z,14.40
2022-11-27T09:29:45.013Z,13.80
2022-11-27T09:32:18.916Z,12.60
2022-11-27T09:34:54.319Z,13.60
2022-11-27T09:37:28.678Z,12.10
2022-11-27T09:40:02.696Z,10.60
2022-11-27T09:42:51.142Z,12.80
2022-11-27T09:45:28.698Z,11.60
2022-11-27T09:48:09.993Z,11.80
2022-11-27T09:50:50.464Z,12.70
2022-11-27T09:53:33.005Z,16.70
2022-11-27T09:56:14.582Z,14.20
2022-11-27T09:58:54.340Z,14.00
2022-11-27T10:01:42.101Z,14.10
2022-11-27T10:04:22.865Z,14.60
2022-11-27T10:07:19.477Z,13.90
2022-11-27T10:10:12.258Z,14.40
2022-11-27T10:13:06.017Z,13.90
2022-11-27T10:15:53.224Z,14.20
2022-11-27T10:18:38.426Z,12.90
2022-11-27T10:21:22.881Z,12.60
2022-11-27T10:24:07.581Z,13.20
2022-11-27T10:26:49.521Z,13.50
2022-11-27T10:29:44.330Z,11.90
2022-11-27T10:32:53.605Z,10.60
2022-11-27T10:35:20.965Z,10.20
2022-11-27T10:38:05.214Z,20.40
2022-11-27T10:40:46.936Z,13.20
2022-11-27T10:43:24.207Z,16.70
2022-11-27T10:46:02.454Z,15.30
2022-11-27T10:48:37.498Z,11.60
2022-11-27T10:51:22.156Z,10.30
2022-11-27T10:54:00.598Z,12.60
2022-11-27T10:57:00.290Z,12.70
2022-11-27T10:59:41.732Z,28.70
2022-11-27T11:05:45.639Z,14.20
2022-11-27T11:08:25.728Z,9.30
2022-11-27T11:11:02.185Z,10.80
2022-11-27T11:13:33.315Z,10.20
2022-11-27T11:16:15.599Z,12.70
2022-11-27T11:18:49.446Z,19.30
2022-11-27T11:21:27.550Z,26.20
2022-11-27T11:24:01.812Z,18.80
2022-11-27T11:26:36.038Z,18.80
2022-11-27T11:29:32.261Z,14.10
2022-11-27T11:32:11.029Z,23.20
2022-11-27T11:34:47.230Z,12.00
2022-11-27T11:37:30.397Z,15.00
2022-11-27T11:40:05.232Z,13.20
2022-11-27T11:42:37.658Z,11.20
2022-11-27T11:45:18.864Z,10.30
2022-11-27T11:47:50.941Z,12.80
2022-11-27T11:50:34.277Z,12.10
2022-11-27T11:53:17.667Z,12.80
2022-11-27T11:56:04.259Z,12.00
2022-11-27T11:58:50.734Z,13.90
2022-11-27T12:01:53.680Z,11.80
2022-11-27T12:04:53.312Z,13.20
2022-11-27T12:07:51.842Z,11.50
2022-11-27T12:10:31.131Z,12.50
2022-11-27T12:13:20.407Z,13.80
2022-11-27T12:16:04.162Z,10.60
2022-11-27T12:18:49.866Z,12.60
2022-11-27T12:21:31.966Z,12.10
2022-11-27T12:24:24.799Z,14.50
2022-11-27T12:27:12.150Z,13.30
2022-11-27T12:30:10.272Z,12.60
2022-11-27T12:33:18.727Z,12.50
2022-11-27T12:36:06.104Z,10.60
2022-11-27T12:39:03.104Z,10.10
2022-11-27T12:41:59.113Z,11.70
2022-11-27T12:44:44.395Z,10.90
2022-11-27T12:47:22.881Z,12.40
2022-11-27T12:49:59.938Z,12.40
2022-11-27T12:52:39.989Z,13.90
2022-11-27T12:55:15.498Z,17.50
2022-11-27T12:57:51.138Z,15.20
2022-11-27T13:00:25.856Z,19.30
2022-11-27T13:03:06.811Z,17.40
2022-11-27T13:05:43.913Z,16.10
2022-11-27T13:08:20.332Z,16.40
2022-11-27T13:10:58.033Z,16.00
2022-11-27T13:13:33.475Z,13.80
2022-11-27T13:16:12.352Z,12.50
2022-11-27T13:18:48.616Z,12.90
2022-11-27T13:21:23.782Z,12.60
2022-11-27T13:23:54.686Z,12.30
2022-11-27T13:26:34.060Z,16.90
2022-11-27T13:29:08.338Z,12.90
2022-11-27T13:31:42.549Z,13.10
2022-11-27T13:34:23.552Z,14.10
2022-11-27T13:37:01.307Z,13.70
2022-11-27T13:39:36.572Z,12.20
2022-11-27T13:42:17.545Z,14.30
2022-11-27T13:44:57.355Z,14.50
2022-11-27T13:47:38.339Z,15.10
2022-11-27T13:50:12.229Z,15.80
2022-11-27T13:52:56.537Z,15.90
2022-11-27T13:55:30.213Z,16.50
2022-11-27T13:58:03.088Z,16.40
2022-11-27T14:00:37.636Z,14.80
2022-11-27T14:03:23.388Z,13.60
2022-11-27T14:05:53.762Z,13.40
2022-11-27T14:08:26.793Z,14.60
2022-11-27T14:11:03.467Z,13.40
2022-11-27T14:13:41.361Z,14.40
2022-11-27T14:16:26.603Z,14.20
2022-11-27T14:19:00.896Z,13.40
2022-11-27T14:21:42.082Z,14.00
2022-11-27T14:24:40.570Z,14.90
2022-11-27T14:27:19.818Z,13.00
2022-11-27T14:29:50.834Z,14.80
2022-11-27T14:32:22.122Z,13.00
2022-11-27T14:34:52.026Z,13.70
2022-11-27T14:37:28.018Z,15.60
2022-11-27T14:39:57.840Z,15.60
2022-11-27T14:42:31.334Z,17.80
2022-11-27T14:45:08.140Z,17.20
2022-11-27T14:47:40.973Z,16.20
2022-11-27T14:50:15.708Z,17.40
2022-11-27T14:52:50.417Z,16.70
2022-11-27T14:55:22.174Z,18.10
2022-11-27T14:57:52.742Z,19.30
2022-11-27T15:00:26.870Z,16.00
2022-11-27T15:03:07.115Z,18.70
2022-11-27T15:05:40.570Z,16.10
2022-11-27T15:16:53.834Z,16.20
2022-11-27T15:19:33.890Z,16.30
2022-11-27T15:22:08.421Z,15.10
2022-11-27T15:24:42.560Z,16.70
2022-11-27T15:27:24.609Z,17.40
2022-11-27T15:30:14.998Z,16.90
2022-11-27T15:32:55.924Z,15.90
2022-11-27T15:35:35.420Z,15.90
2022-11-27T15:38:21.519Z,16.00
2022-11-27T15:41:04.967Z,16.90
2022-11-27T15:43:38.945Z,16.10
2022-11-27T15:46:15.985Z,16.90
2022-11-27T15:48:50.250Z,18.40
2022-11-27T15:51:24.403Z,17.40
2022-11-27T15:53:59.034Z,18.40
2022-11-27T15:56:32.815Z,19.00
2022-11-27T15:59:07.479Z,19.40
2022-11-27T16:01:43.156Z,21.10
2022-11-27T16:04:17.210Z,19.60
2022-11-27T16:06:51.056Z,20.40
2022-11-27T16:09:25.255Z,18.70
2022-11-27T16:12:00.010Z,17.60
2022-11-27T16:14:34.445Z,18.90
2022-11-27T16:17:08.682Z,19.30
2022-11-27T16:19:42.483Z,22.00
2022-11-27T16:22:17.606Z,22.30
2022-11-27T16:24:51.832Z,21.80
2022-11-27T16:27:25.933Z,22.80
2022-11-27T16:30:00.590Z,23.80
2022-11-27T16:32:38.208Z,21.00
2022-11-27T16:35:13.706Z,20.60
2022-11-27T16:37:48.006Z,21.10
2022-11-27T16:40:22.388Z,19.90
2022-11-27T16:42:56.440Z,17.50
2022-11-27T16:45:30.956Z,20.00
2022-11-27T16:48:06.067Z,16.10
2022-11-27T16:50:40.597Z,17.90
2022-11-27T16:53:14.880Z,18.70
2022-11-27T16:55:51.691Z,17.60
2022-11-27T16:58:26.558Z,16.00
2022-11-27T17:01:00.524Z,12.60
2022-11-27T17:03:35.058Z,16.80
2022-11-27T17:06:18.171Z,15.50
2022-11-27T17:08:54.476Z,14.60
2022-11-27T17:11:33.098Z,14.70
2022-11-27T17:14:12.296Z,14.00
2022-11-27T17:16:47.629Z,14.20
2022-11-27T17:19:24.133Z,14.90
2022-11-27T17:21:58.802Z,15.20
2022-11-27T17:24:36.026Z,15.50
2022-11-27T17:27:14.564Z,14.50
2022-11-27T17:29:48.935Z,14.60
2022-11-27T17:32:26.453Z,13.20
2022-11-27T17:35:02.747Z,12.90
2022-11-27T17:37:37.942Z,13.30
2022-11-27T17:40:16.000Z,13.60
2022-11-27T17:42:50.441Z,13.50
2022-11-27T17:45:25.327Z,12.00
2022-11-27T17:48:00.255Z,12.80
2022-11-27T17:50:34.559Z,13.80
2022-11-27T17:53:10.693Z,15.20
2022-11-27T17:55:45.979Z,14.10
2022-11-27T17:58:20.813Z,14.90
2022-11-27T18:00:55.156Z,16.30
2022-11-27T18:03:30.505Z,17.40
2022-11-27T18:06:07.700Z,18.40
2022-11-27T18:08:42.077Z,18.90
2022-11-27T18:11:19.329Z,21.10
2022-11-27T18:13:54.014Z,21.50
2022-11-27T18:16:35.111Z,21.00
2022-11-27T18:19:11.928Z,22.80
2022-11-27T18:21:46.236Z,21.20
2022-11-27T18:24:24.671Z,21.50
2022-11-27T18:27:09.238Z,19.80
2022-11-27T18:29:45.943Z,20.60
2022-11-27T18:32:21.168Z,19.00
2022-11-27T18:34:57.011Z,21.00
2022-11-27T18:37:31.171Z,23.00
2022-11-27T18:40:05.478Z,22.20
2022-11-27T18:42:39.723Z,25.30
2022-11-27T18:45:31.672Z,25.20
2022-11-27T18:48:08.059Z,26.70
2022-11-27T18:50:42.529Z,25.70
2022-11-27T18:53:16.590Z,28.30
2022-11-27T18:55:52.867Z,30.10
2022-11-27T18:58:28.262Z,30.40
2022-11-27T19:01:07.536Z,29.10
2022-11-27T19:03:43.427Z,29.10
2022-11-27T19:06:20.254Z,27.50
2022-11-27T19:08:56.319Z,23.00
2022-11-27T19:11:32.798Z,22.20
2022-11-27T19:14:07.738Z,21.00
2022-11-27T19:16:46.653Z,19.80
2022-11-27T19:22:20.008Z,20.80
2022-11-27T19:24:54.204Z,21.50
2022-11-27T19:27:30.642Z,21.70
2022-11-27T19:30:04.998Z,20.50
2022-11-27T19:32:39.953Z,21.20
2022-11-27T19:35:14.267Z,20.50
2022-11-27T19:37:48.496Z,20.00
2022-11-27T19:40:22.975Z,21.70
2022-11-27T19:43:01.017Z,19.20
2022-11-27T19:45:39.256Z,20.60
2022-11-27T19:48:13.530Z,20.90
2022-11-27T19:50:47.748Z,19.70
2022-11-27T19:53:23.294Z,21.20
2022-11-27T19:56:00.652Z,21.50
2022-11-27T19:58:35.937Z,21.50
2022-11-27T20:01:15.511Z,21.40
2022-11-27T20:03:50.922Z,20.30
2022-11-27T20:06:27.686Z,20.40
2022-11-27T20:09:06.607Z,20.50
2022-11-27T20:11:41.074Z,21.40
2022-11-27T20:14:16.019Z,21.70
2022-11-27T20:16:50.316Z,21.80
2022-11-27T20:19:27.398Z,20.40
2022-11-27T20:22:02.006Z,20.60
2022-11-27T20:24:47.792Z,20.30
2022-11-27T20:27:30.733Z,20.90
2022-11-27T20:30:05.380Z,23.60
2022-11-27T20:32:39.403Z,22.60
2022-11-27T20:35:14.041Z,23.00
2022-11-27T20:37:48.919Z,23.70
2022-11-27T20:40:26.004Z,23.90
2022-11-27T20:43:00.088Z,22.60
2022-11-27T20:45:37.369Z,23.60
2022-11-27T20:48:12.454Z,22.50
2022-11-27T20:50:51.348Z,24.20
2022-11-27T20:53:25.166Z,22.90
2022-11-27T20:56:04.980Z,22.60
2022-11-27T20:58:41.826Z,22.90
2022-11-27T21:01:21.738Z,22.20
2022-11-27T21:03:58.769Z,22.50
2022-11-27T21:06:38.087Z,20.70
2022-11-27T21:09:16.335Z,22.50
2022-11-27T21:11:50.702Z,20.90
2022-11-27T21:14:24.548Z,21.50
2022-11-27T21:17:04.603Z,22.40
2022-11-27T21:19:40.234Z,22.50
2022-11-27T21:22:14.648Z,22.20
2022-11-27T21:24:52.371Z,22.00
2022-11-27T21:27:27.151Z,23.90
2022-11-27T21:30:01.054Z,20.20
2022-11-27T21:32:35.274Z,23.10
2022-11-27T21:35:11.335Z,22.00
2022-11-27T21:37:45.542Z,22.00
2022-11-27T21:40:20.707Z,22.10
2022-11-27T21:42:54.689Z,22.30
2022-11-27T21:45:29.263Z,22.10
2022-11-27T21:48:04.034Z,22.00
2022-11-27T21:50:38.945Z,21.30
2022-11-27T21:53:14.114Z,20.00
2022-11-27T21:55:48.977Z,20.50
2022-11-27T21:58:23.232Z,23.00
2022-11-27T22:00:57.568Z,22.50
2022-11-27T22:03:32.312Z,20.90
2022-11-27T22:06:12.802Z,20.10
2022-11-27T22:08:49.334Z,20.90
2022-11-27T22:11:28.132Z,22.30
2022-11-27T22:14:06.210Z,22.30
2022-11-27T22:16:45.150Z,22.90
2022-11-27T22:19:21.070Z,22.40
2022-11-27T22:21:56.955Z,22.60
2022-11-27T22:24:31.441Z,22.00
2022-11-27T22:27:06.049Z,24.90
2022-11-27T22:29:40.161Z,24.40
2022-11-27T22:32:13.948Z,23.00
2022-11-27T22:34:47.978Z,22.40
2022-11-27T22:37:21.783Z,22.90
2022-11-27T22:39:55.913Z,23.60
2022-11-27T22:42:30.311Z,25.20
2022-11-27T22:45:04.233Z,24.20
2022-11-27T22:47:38.452Z,21.40
2022-11-27T22:50:13.246Z,22.50
2022-11-27T22:52:47.380Z,22.80
2022-11-27T22:55:21.811Z,22.30
2022-11-27T22:57:55.623Z,22.80
2022-11-27T23:00:30.912Z,23.50
2022-11-27T23:03:05.158Z,22.80
2022-11-27T23:05:39.939Z,21.30
2022-11-27T23:08:14.357Z,20.70
2022-11-27T23:10:49.048Z,23.70
2022-11-27T23:13:23.067Z,23.10
2022-11-27T23:22:21.646Z,21.60
2022-11-27T23:24:55.995Z,20.20
2022-11-27T23:27:30.641Z,24.10
2022-11-27T23:30:06.576Z,23.20
2022-11-27T23:32:40.483Z,23.20
2022-11-27T23:35:14.927Z,23.80
2022-11-27T23:37:48.708Z,22.20
2022-11-27T23:40:23.054Z,23.60
2022-11-27T23:42:57.183Z,24.90
2022-11-27T23:45:30.804Z,27.60
2022-11-27T23:48:04.876Z,26.30
2022-11-27T23:50:41.654Z,25.30
2022-11-27T23:53:15.244Z,22.40
2022-11-27T23:55:49.171Z,23.00
2022-11-27T23:58:23.086Z,26.80
